Time;durP1;ratioP1;P1;durP2;ratioP2;P2;SDS_P1;SDS_P2;PMS_P1;PMS_P2;Temp;Humidity;BMP_temperature;BMP_pressure;BME280_temperature;BME280_humidity;BME280_pressure;Samples;Min_cycle;Max_cycle;Signal;HPM_P1;HPM_P2
2021/07/10 00:01:59;;;;;;;8.45;6.20;;;614.50;2432.00;;;;;;5055666;28;20025;-80
2021/07/10 00:04:27;;;;;;;9.80;5.95;;;614.60;2432.00;;;;;;5056461;28;20036;-80
2021/07/10 00:06:53;;;;;;;10.02;6.47;;;614.50;2432.00;;;;;;5056373;28;20039;-79
2021/07/10 00:09:20;;;;;;;11.13;7.28;;;614.40;2432.00;;;;;;5056829;28;20126;-79
2021/07/10 00:11:46;;;;;;;8.32;6.72;;;614.50;2432.00;;;;;;5055578;28;20017;-80
2021/07/10 00:14:12;;;;;;;10.98;7.15;;;614.50;2432.00;;;;;;5058031;28;20082;-81
2021/07/10 00:16:38;;;;;;;9.18;6.65;;;614.60;2432.00;;;;;;5057319;28;20115;-81
2021/07/10 00:19:03;;;;;;;11.25;7.50;;;614.50;2432.00;;;;;;5056806;28;20175;-79
2021/07/10 00:21:29;;;;;;;12.27;7.88;;;614.50;2432.00;;;;;;5056266;28;20029;-80
2021/07/10 00:23:55;;;;;;;13.85;7.40;;;614.60;2432.00;;;;;;5040658;28;20042;-80
2021/07/10 00:26:21;;;;;;;10.63;7.43;;;614.50;2432.00;;;;;;5036976;28;20032;-80
2021/07/10 00:28:47;;;;;;;11.93;6.95;;;614.50;2432.00;;;;;;5035723;28;20067;-80
2021/07/10 00:31:13;;;;;;;11.07;8.00;;;614.50;2432.00;;;;;;5035255;28;20030;-80
2021/07/10 00:33:38;;;;;;;12.48;7.68;;;614.50;2432.00;;;;;;5035964;28;20068;-80
2021/07/10 00:36:04;;;;;;;10.93;7.80;;;614.50;2432.00;;;;;;5036274;28;20384;-80
2021/07/10 00:38:30;;;;;;;9.18;6.80;;;614.50;2432.00;;;;;;5035104;28;20033;-80
2021/07/10 00:40:55;;;;;;;12.52;7.00;;;614.40;2432.00;;;;;;5035166;28;20026;-81
2021/07/10 00:43:23;;;;;;;13.38;7.75;;;589.70;2432.00;;;;;;5053101;28;20499;-79
2021/07/10 00:45:49;;;;;;;10.50;6.75;;;589.70;2432.00;;;;;;5055017;28;20104;-80
2021/07/10 00:48:15;;;;;;;9.80;7.70;;;589.60;2432.00;;;;;;5071683;28;20025;-80
2021/07/10 00:50:40;;;;;;;14.07;9.10;;;589.50;2432.00;;;;;;5054648;28;20024;-80
2021/07/10 00:53:06;;;;;;;11.02;8.70;;;589.40;2432.00;;;;;;5054977;28;20045;-80
2021/07/10 00:55:33;;;;;;;11.02;8.23;;;589.40;2432.00;;;;;;5054746;28;20022;-80
2021/07/10 00:58:00;;;;;;;10.50;7.45;;;589.40;2432.00;;;;;;5054882;28;20468;-81
2021/07/10 01:00:26;;;;;;;11.85;8.27;;;589.40;2432.00;;;;;;5054513;28;20085;-80
2021/07/10 01:02:54;;;;;;;15.15;7.68;;;589.30;2432.00;;;;;;5054327;28;20071;-80
2021/07/10 01:05:26;;;;;;;10.65;7.10;;;589.20;2432.00;;;;;;5054822;28;20017;-80
2021/07/10 01:07:52;;;;;;;12.02;7.75;;;589.20;2432.00;;;;;;5054200;28;20032;-81
2021/07/10 01:10:18;;;;;;;15.13;8.48;;;589.20;2432.00;;;;;;5054828;28;20045;-81
2021/07/10 01:12:47;;;;;;;13.30;7.78;;;589.30;2432.00;;;;;;5054536;28;20037;-81
2021/07/10 01:15:14;;;;;;;12.82;7.43;;;589.30;2432.00;;;;;;5056160;28;20025;-80
2021/07/10 01:17:42;;;;;;;9.88;7.65;;;589.30;2432.00;;;;;;5054382;28;20035;-80
2021/07/10 01:20:11;;;;;;;10.23;7.60;;;589.40;2432.00;;;;;;5054363;28;20048;-81
2021/07/10 01:22:38;;;;;;;10.23;6.88;;;589.50;2432.00;;;;;;5054092;28;20112;-80
2021/07/10 01:25:06;;;;;;;9.57;6.65;;;589.50;2432.00;;;;;;5054218;28;20040;-80
2021/07/10 01:27:32;;;;;;;11.35;7.10;;;589.40;2432.00;;;;;;5053454;28;20446;-80
2021/07/10 01:30:03;;;;;;;11.90;8.05;;;589.40;2432.00;;;;;;5054244;28;20167;-80
2021/07/10 01:32:30;;;;;;;12.02;7.53;;;589.40;2432.00;;;;;;5058561;28;20036;-82
2021/07/10 01:34:56;;;;;;;10.25;7.57;;;589.40;2432.00;;;;;;5061550;28;20037;-82
2021/07/10 01:37:21;;;;;;;11.88;7.25;;;589.40;2432.00;;;;;;5058223;28;20021;-81
2021/07/10 01:39:47;;;;;;;10.07;8.25;;;589.50;2432.00;;;;;;5054521;28;20021;-81
2021/07/10 01:42:13;;;;;;;12.68;9.32;;;589.50;2432.00;;;;;;5054163;28;20480;-80
2021/07/10 01:44:41;;;;;;;13.60;8.50;;;589.60;2432.00;;;;;;5053947;28;20100;-81
2021/07/10 01:47:07;;;;;;;11.10;8.32;;;589.70;2432.00;;;;;;5053835;28;20025;-80
2021/07/10 01:49:33;;;;;;;12.35;8.95;;;589.60;2432.00;;;;;;5055246;28;20112;-80
2021/07/10 01:52:00;;;;;;;13.60;9.38;;;589.50;2432.00;;;;;;5053782;28;20084;-79
2021/07/10 01:54:26;;;;;;;9.27;7.85;;;589.50;2432.00;;;;;;5053832;28;20017;-81
2021/07/10 01:56:52;;;;;;;12.73;7.63;;;589.50;2432.00;;;;;;5054046;28;20029;-80
2021/07/10 01:59:18;;;;;;;13.02;8.00;;;589.50;2432.00;;;;;;5053694;28;20033;-81
2021/07/10 02:01:49;;;;;;;16.38;8.63;;;589.50;2432.00;;;;;;5054867;28;20029;-80
2021/07/10 02:04:15;;;;;;;13.15;8.50;;;589.40;2432.00;;;;;;5053556;28;20365;-79
2021/07/10 02:06:43;;;;;;;13.50;7.75;;;589.40;2432.00;;;;;;5053667;28;20040;-80
2021/07/10 02:09:09;;;;;;;10.20;8.30;;;589.30;2432.00;;;;;;5054105;28;20403;-82
2021/07/10 02:11:35;;;;;;;15.90;8.70;;;589.20;2432.00;;;;;;5053574;28;20024;-80
2021/07/10 02:14:01;;;;;;;12.57;8.10;;;589.20;2432.00;;;;;;5054714;28;20040;-79
2021/07/10 02:16:27;;;;;;;12.98;8.35;;;589.00;2432.00;;;;;;5053374;28;20396;-80
2021/07/10 02:18:53;;;;;;;16.90;10.15;;;589.10;2432.00;;;;;;5053067;28;20029;-81
2021/07/10 02:21:18;;;;;;;16.55;10.55;;;589.00;2432.00;;;;;;5053519;28;20021;-80
2021/07/10 02:23:44;;;;;;;15.25;10.65;;;589.00;2432.00;;;;;;5053203;28;20033;-80
2021/07/10 02:26:10;;;;;;;12.20;10.07;;;589.00;2432.00;;;;;;5053159;28;20112;-80
2021/07/10 02:28:36;;;;;;;14.70;10.48;;;589.00;2432.00;;;;;;5052943;28;20107;-80
2021/07/10 02:31:02;;;;;;;9.20;8.15;;;589.10;2432.00;;;;;;5053194;28;20017;-79
2021/07/10 02:33:27;;;;;;;13.98;8.90;;;589.10;2432.00;;;;;;5055266;28;20042;-80
2021/07/10 02:35:54;;;;;;;11.43;9.00;;;589.20;2432.00;;;;;;5033961;28;20053;-81
2021/07/10 02:38:19;;;;;;;13.02;9.00;;;589.20;2432.00;;;;;;5049373;28;20468;-80
2021/07/10 02:40:45;;;;;;;13.00;9.65;;;589.20;2432.00;;;;;;5053060;28;20021;-80
2021/07/10 02:43:11;;;;;;;11.70;9.25;;;589.20;2432.00;;;;;;5052906;28;20029;-80
2021/07/10 02:45:38;;;;;;;14.45;8.63;;;589.30;2432.00;;;;;;5053643;28;20021;-80
2021/07/10 02:48:04;;;;;;;17.08;9.90;;;589.30;2432.00;;;;;;5052991;28;20025;-80
2021/07/10 02:50:30;;;;;;;15.20;10.40;;;589.30;2432.00;;;;;;5054275;28;20025;-81
2021/07/10 02:52:56;;;;;;;11.57;8.98;;;589.30;2432.00;;;;;;5040172;28;20045;-80
2021/07/10 02:55:25;;;;;;;14.05;10.07;;;589.30;2432.00;;;;;;5032834;28;20026;-80
2021/07/10 02:57:51;;;;;;;13.40;9.63;;;589.40;2432.00;;;;;;5033640;28;20049;-81
2021/07/10 03:00:20;;;;;;;14.05;9.38;;;589.40;2432.00;;;;;;5033428;28;20074;-80
2021/07/10 03:02:46;;;;;;;12.10;8.82;;;589.40;2432.00;;;;;;5016117;28;20033;-79
2021/07/10 03:05:12;;;;;;;14.70;9.85;;;589.50;2432.00;;;;;;5032896;28;20338;-81
2021/07/10 03:07:39;;;;;;;15.75;8.90;;;589.50;2432.00;;;;;;5033645;28;20030;-81
2021/07/10 03:10:07;;;;;;;11.80;8.75;;;589.50;2432.00;;;;;;5032419;28;20032;-79
2021/07/10 03:12:33;;;;;;;10.32;8.80;;;589.50;2432.00;;;;;;5032782;28;20037;-80
2021/07/10 03:14:59;;;;;;;13.00;8.85;;;589.40;2432.00;;;;;;5032350;28;20373;-80
2021/07/10 03:17:25;;;;;;;11.32;9.45;;;589.40;2432.00;;;;;;5033281;28;20465;-80
2021/07/10 03:19:50;;;;;;;14.18;8.68;;;589.50;2432.00;;;;;;5032869;28;20024;-79
2021/07/10 03:22:16;;;;;;;12.50;10.20;;;589.30;2432.00;;;;;;5034460;28;20547;-79
2021/07/10 03:24:42;;;;;;;9.77;7.70;;;589.30;2432.00;;;;;;5033132;28;20116;-80
2021/07/10 03:27:08;;;;;;;9.93;8.55;;;589.20;2432.00;;;;;;5033068;28;20025;-79
2021/07/10 03:29:34;;;;;;;12.93;8.45;;;589.20;2432.00;;;;;;5034174;28;20041;-80
2021/07/10 03:32:00;;;;;;;10.60;8.30;;;589.20;2432.00;;;;;;5036361;28;20037;-80
2021/07/10 03:34:26;;;;;;;10.63;8.23;;;589.20;2432.00;;;;;;5036366;28;20083;-80
2021/07/10 03:36:52;;;;;;;12.40;9.27;;;589.20;2432.00;;;;;;5036299;28;20029;-80
2021/07/10 03:39:18;;;;;;;10.80;7.57;;;589.20;2432.00;;;;;;5036695;28;20083;-80
2021/07/10 03:41:43;;;;;;;14.63;8.20;;;589.10;2432.00;;;;;;5036341;28;20458;-80
2021/07/10 03:44:09;;;;;;;12.23;8.68;;;589.00;2432.00;;;;;;5036296;28;20033;-79
2021/07/10 03:46:35;;;;;;;12.18;7.85;;;589.10;2432.00;;;;;;5036013;28;20033;-80
2021/07/10 03:49:01;;;;;;;9.70;7.90;;;589.10;2432.00;;;;;;5036757;28;20033;-80
2021/07/10 03:51:27;;;;;;;11.57;7.95;;;589.10;2432.00;;;;;;5035797;28;20504;-80
2021/07/10 03:53:53;;;;;;;10.43;8.13;;;589.10;2432.00;;;;;;5035973;28;20127;-80
2021/07/10 03:56:19;;;;;;;13.88;9.15;;;589.00;2432.00;;;;;;5036281;28;20017;-80
2021/07/10 03:58:46;;;;;;;10.15;9.02;;;589.10;2432.00;;;;;;5052524;28;20034;-79
2021/07/10 04:01:12;;;;;;;11.82;8.45;;;589.00;2432.00;;;;;;5036866;28;20025;-80
2021/07/10 04:03:38;;;;;;;9.88;8.23;;;589.00;2432.00;;;;;;5050212;28;20037;-80
2021/07/10 04:06:03;;;;;;;10.23;8.77;;;589.10;2432.00;;;;;;5055286;28;20033;-80
2021/07/10 04:08:29;;;;;;;15.98;8.63;;;589.10;2432.00;;;;;;5055867;28;20464;-80
2021/07/10 04:10:55;;;;;;;15.32;9.93;;;589.10;2432.00;;;;;;5051882;28;20093;-81
2021/07/10 04:13:21;;;;;;;11.05;8.40;;;589.00;2432.00;;;;;;5051398;28;20507;-81
2021/07/10 04:15:46;;;;;;;14.80;10.25;;;589.00;2432.00;;;;;;5053416;28;20033;-80
2021/07/10 04:18:12;;;;;;;11.77;9.25;;;589.10;2432.00;;;;;;5052090;28;20040;-81
2021/07/10 04:20:38;;;;;;;11.50;9.25;;;589.10;2432.00;;;;;;5036367;28;20081;-80
2021/07/10 04:23:08;;;;;;;13.25;9.07;;;589.10;2432.00;;;;;;5036537;28;20026;-80
2021/07/10 04:25:34;;;;;;;12.02;9.40;;;589.10;2432.00;;;;;;5035745;28;20033;-81
2021/07/10 04:28:00;;;;;;;12.32;9.18;;;589.10;2432.00;;;;;;5035611;28;20029;-81
2021/07/10 04:30:26;;;;;;;11.73;10.52;;;589.10;2432.00;;;;;;5036278;28;20041;-80
2021/07/10 04:32:52;;;;;;;11.32;10.15;;;589.10;2432.00;;;;;;5035791;28;20045;-80
2021/07/10 04:35:20;;;;;;;13.30;8.52;;;589.10;2432.00;;;;;;5036776;28;20052;-80
2021/07/10 04:37:46;;;;;;;12.38;10.80;;;589.20;2432.00;;;;;;5036100;28;20489;-81
2021/07/10 04:40:13;;;;;;;11.55;9.43;;;589.20;2432.00;;;;;;5035773;28;20056;-80
2021/07/10 04:42:40;;;;;;;12.00;10.48;;;589.20;2432.00;;;;;;5045326;28;20053;-83
2021/07/10 04:45:07;;;;;;;14.02;11.30;;;589.20;2432.00;;;;;;5047142;28;20076;-81
2021/07/10 04:47:33;;;;;;;12.93;10.38;;;589.20;2432.00;;;;;;5046372;28;20022;-85
2021/07/10 04:49:59;;;;;;;12.20;10.95;;;589.20;2432.00;;;;;;5036629;28;20045;-80
2021/07/10 04:52:25;;;;;;;14.75;11.10;;;589.30;2432.00;;;;;;5036918;28;20057;-79
2021/07/10 04:54:50;;;;;;;14.77;11.30;;;589.30;2432.00;;;;;;5035588;28;20072;-80
2021/07/10 04:57:16;;;;;;;12.48;10.18;;;589.40;2432.00;;;;;;5037122;28;20022;-80
2021/07/10 04:59:42;;;;;;;10.77;9.68;;;589.40;2432.00;;;;;;5035000;28;20075;-80
2021/07/10 05:02:08;;;;;;;12.05;10.77;;;589.40;2432.00;;;;;;5034859;28;20049;-80
2021/07/10 05:04:34;;;;;;;11.18;9.45;;;589.40;2432.00;;;;;;5035366;28;20094;-80
2021/07/10 05:07:00;;;;;;;12.48;11.18;;;589.60;2432.00;;;;;;5035081;28;20030;-80
2021/07/10 05:09:25;;;;;;;12.27;9.50;;;589.70;2432.00;;;;;;5039540;28;20369;-80
2021/07/10 05:11:51;;;;;;;11.85;9.63;;;614.40;2432.00;;;;;;5039756;28;20030;-80
2021/07/10 05:14:17;;;;;;;10.95;9.25;;;614.40;2432.00;;;;;;5034535;28;20084;-80
2021/07/10 05:16:43;;;;;;;10.68;9.52;;;614.50;2432.00;;;;;;5034573;28;20029;-80
2021/07/10 05:19:09;;;;;;;13.68;9.80;;;614.50;2432.00;;;;;;5034540;28;20117;-80
2021/07/10 05:21:35;;;;;;;13.52;8.35;;;614.60;2432.00;;;;;;5036349;28;20112;-80
2021/07/10 05:24:02;;;;;;;13.07;9.63;;;614.60;2432.00;;;;;;5034653;28;20025;-80
2021/07/10 05:26:28;;;;;;;10.75;9.65;;;614.40;2432.00;;;;;;5035411;28;20029;-80
2021/07/10 05:28:54;;;;;;;11.68;9.02;;;614.70;2432.00;;;;;;5034215;28;20096;-79
2021/07/10 05:31:20;;;;;;;12.55;11.02;;;614.80;2432.00;;;;;;5034403;28;20112;-80
2021/07/10 05:33:46;;;;;;;11.10;9.15;;;614.80;2432.00;;;;;;5034137;28;20136;-80
2021/07/10 05:36:12;;;;;;;11.95;9.02;;;614.90;2432.00;;;;;;5035229;28;20095;-79
2021/07/10 05:38:37;;;;;;;9.73;8.73;;;614.90;2432.00;;;;;;5033843;28;20322;-81
2021/07/10 05:41:04;;;;;;;10.75;8.20;;;615.10;2432.00;;;;;;5034202;28;20040;-80
2021/07/10 05:43:29;;;;;;;14.48;8.95;;;615.10;2432.00;;;;;;5034162;28;20033;-80
2021/07/10 05:45:55;;;;;;;9.48;7.55;;;615.10;2432.00;;;;;;5034888;28;20025;-80
2021/07/10 05:48:21;;;;;;;10.70;8.68;;;615.10;2432.00;;;;;;5033820;28;20036;-80
2021/07/10 05:50:48;;;;;;;11.18;8.65;;;615.20;2432.00;;;;;;5033950;28;20025;-80
2021/07/10 05:53:14;;;;;;;13.98;9.27;;;615.30;2432.00;;;;;;5033024;28;20041;-81
2021/07/10 05:55:41;;;;;;;9.05;6.90;;;615.30;2432.00;;;;;;5034409;28;20025;-81
2021/07/10 05:58:07;;;;;;;13.05;8.88;;;640.00;2432.00;;;;;;5017517;28;20037;-79
2021/07/10 06:00:33;;;;;;;10.07;7.78;;;640.20;2432.00;;;;;;5034255;28;20155;-81
2021/07/10 06:02:59;;;;;;;9.55;8.55;;;640.30;2432.00;;;;;;5033582;28;20041;-82
2021/07/10 06:05:26;;;;;;;12.32;7.70;;;640.30;2432.00;;;;;;5033638;28;20018;-83
2021/07/10 06:07:55;;;;;;;9.13;7.28;;;640.40;2432.00;;;;;;5034971;28;20064;-81
2021/07/10 06:10:21;;;;;;;10.25;7.30;;;640.60;2432.00;;;;;;5033719;28;20037;-77
2021/07/10 06:12:48;;;;;;;16.20;8.40;;;640.70;2432.00;;;;;;5033123;28;20037;-82
2021/07/10 06:15:14;;;;;;;9.57;7.18;;;640.70;2432.00;;;;;;5040719;28;20124;-81
2021/07/10 06:17:41;;;;;;;12.48;7.63;;;640.60;2406.40;;;;;;5040459;28;20029;-77
2021/07/10 06:20:10;;;;;;;10.65;7.60;;;640.80;2432.00;;;;;;5044818;28;20082;-81
2021/07/10 06:22:36;;;;;;;10.48;8.43;;;665.60;2432.00;;;;;;5042640;28;20031;-81
2021/07/10 06:25:05;;;;;;;14.38;8.07;;;665.70;2432.00;;;;;;5044287;28;20022;-77
2021/07/10 06:27:30;;;;;;;11.73;7.45;;;665.90;2380.80;;;;;;5041535;28;20032;-80
2021/07/10 06:29:56;;;;;;;17.83;8.20;;;666.00;2355.20;;;;;;5053922;28;20032;-82
2021/07/10 06:32:22;;;;;;;8.65;7.60;;;666.00;2329.60;;;;;;5053551;28;20044;-81
2021/07/10 06:34:48;;;;;;;12.75;9.68;;;666.10;2329.60;;;;;;5054500;28;20480;-78
2021/07/10 06:37:13;;;;;;;8.82;7.75;;;666.20;2304.00;;;;;;5040086;28;20029;-82
2021/07/10 06:39:39;;;;;;;10.50;8.82;;;666.20;2278.40;;;;;;5034020;28;20029;-81
2021/07/10 06:42:05;;;;;;;13.50;8.90;;;666.40;2278.40;;;;;;5033762;28;20032;-81
2021/07/10 06:44:31;;;;;;;12.75;7.72;;;666.40;2278.40;;;;;;5033295;28;20112;-78
2021/07/10 06:46:57;;;;;;;12.50;8.32;;;666.50;2252.80;;;;;;5033058;28;20033;-77
2021/07/10 06:49:23;;;;;;;14.68;8.52;;;666.50;2252.80;;;;;;5039169;28;20029;-77
2021/07/10 06:51:49;;;;;;;9.07;7.85;;;691.20;2252.80;;;;;;5032616;28;20045;-77
2021/07/10 06:54:15;;;;;;;10.73;9.57;;;666.50;2278.40;;;;;;5033805;28;20036;-77
2021/07/10 06:56:40;;;;;;;13.10;9.65;;;691.20;2278.40;;;;;;5032750;28;20022;-77
2021/07/10 06:59:06;;;;;;;12.63;9.15;;;691.30;2278.40;;;;;;5032386;28;20037;-77
2021/07/10 07:01:32;;;;;;;10.48;8.32;;;691.40;2227.20;;;;;;5032121;28;20026;-75
2021/07/10 07:03:59;;;;;;;11.20;8.65;;;691.40;2252.80;;;;;;5032089;28;20381;-77
2021/07/10 07:06:25;;;;;;;11.43;8.32;;;691.50;2278.40;;;;;;5032629;28;20033;-77
2021/07/10 07:08:50;;;;;;;11.43;8.90;;;691.60;2201.60;;;;;;5032597;28;20033;-76
2021/07/10 07:11:17;;;;;;;13.40;8.82;;;691.60;2201.60;;;;;;5032370;28;20033;-78
2021/07/10 07:13:43;;;;;;;12.10;8.48;;;691.70;2252.80;;;;;;5032011;28;20111;-77
2021/07/10 07:16:08;;;;;;;17.45;9.43;;;691.80;2201.60;;;;;;5032422;28;20033;-78
2021/07/10 07:18:34;;;;;;;13.02;8.02;;;691.80;2201.60;;;;;;5032283;28;20037;-78
2021/07/10 07:21:00;;;;;;;11.93;7.60;;;691.90;2176.00;;;;;;5032292;28;20124;-78
2021/07/10 07:23:25;;;;;;;12.23;8.57;;;691.90;2150.40;;;;;;5032429;28;20056;-77
2021/07/10 07:25:51;;;;;;;13.70;8.43;;;691.90;2176.00;;;;;;5033564;28;20488;-78
2021/07/10 07:28:17;;;;;;;11.82;9.45;;;691.80;2124.80;;;;;;5032584;28;20037;-76
2021/07/10 07:30:43;;;;;;;18.95;9.23;;;691.90;2176.00;;;;;;5032540;28;20036;-76
2021/07/10 07:33:08;;;;;;;14.00;7.45;;;691.90;2124.80;;;;;;5031828;28;20045;-77
2021/07/10 07:35:34;;;;;;;13.88;6.82;;;692.00;2099.20;;;;;;5032181;28;20018;-75
2021/07/10 07:38:00;;;;;;;15.80;8.23;;;692.00;2073.60;;;;;;5032013;28;20087;-78
2021/07/10 07:40:26;;;;;;;10.15;7.13;;;691.90;2073.60;;;;;;5034136;28;20022;-78
2021/07/10 07:42:52;;;;;;;12.25;8.45;;;691.90;2073.60;;;;;;5032305;28;20052;-76
2021/07/10 07:45:21;;;;;;;15.07;7.00;;;692.10;2099.20;;;;;;5031783;28;20352;-77
2021/07/10 07:47:48;;;;;;;12.38;7.10;;;692.10;2073.60;;;;;;5032161;28;20380;-76
2021/07/10 07:50:15;;;;;;;12.52;6.70;;;716.90;2048.00;;;;;;5031956;28;20032;-78
2021/07/10 07:52:41;;;;;;;11.23;6.93;;;716.90;1996.80;;;;;;5031697;28;20072;-77
2021/07/10 07:55:09;;;;;;;10.73;7.20;;;716.90;1996.80;;;;;;5032179;28;20021;-77
2021/07/10 07:57:36;;;;;;;12.90;7.30;;;717.10;1971.20;;;;;;5033469;28;20036;-77
2021/07/10 08:00:07;;;;;;;10.45;6.75;;;717.20;1996.80;;;;;;5032145;28;20032;-77
2021/07/10 08:02:33;;;;;;;7.43;5.97;;;717.30;1920.00;;;;;;5033104;28;20029;-76
2021/07/10 08:04:59;;;;;;;12.15;6.55;;;717.50;1894.40;;;;;;5032520;28;20469;-76
2021/07/10 08:07:25;;;;;;;10.23;6.93;;;717.60;1894.40;;;;;;5032038;28;20018;-77
2021/07/10 08:09:51;;;;;;;14.07;7.03;;;717.70;1868.80;;;;;;5031741;28;20026;-76
2021/07/10 08:12:16;;;;;;;8.45;6.28;;;742.50;1868.80;;;;;;5032071;28;20079;-78
2021/07/10 08:14:42;;;;;;;12.20;6.28;;;742.50;1817.60;;;;;;5032229;28;20045;-77
2021/07/10 08:17:08;;;;;;;10.65;7.97;;;742.60;1920.00;;;;;;5034392;28;20473;-78
2021/07/10 08:19:34;;;;;;;13.38;7.60;;;742.80;1894.40;;;;;;5035347;28;20086;-77
2021/07/10 08:22:00;;;;;;;9.20;7.00;;;742.80;1792.00;;;;;;5036860;28;20036;-77
2021/07/10 08:24:26;;;;;;;11.77;7.18;;;742.90;1792.00;;;;;;5035036;28;20021;-78
2021/07/10 08:26:52;;;;;;;13.55;7.80;;;743.00;1766.40;;;;;;5035116;28;20029;-76
2021/07/10 08:29:17;;;;;;;11.60;7.20;;;743.00;1740.80;;;;;;5035247;28;20040;-77
2021/07/10 08:31:43;;;;;;;10.20;7.10;;;743.10;1766.40;;;;;;5035368;28;20025;-77
2021/07/10 08:34:10;;;;;;;9.43;6.78;;;743.20;1792.00;;;;;;5035161;28;20042;-78
2021/07/10 08:36:37;;;;;;;9.52;7.00;;;768.00;1792.00;;;;;;5051925;28;20029;-78
2021/07/10 08:39:05;;;;;;;10.35;7.05;;;768.10;1792.00;;;;;;5035823;28;20508;-77
2021/07/10 08:41:31;;;;;;;8.27;6.55;;;768.20;1715.20;;;;;;5035190;28;20072;-79
2021/07/10 08:43:56;;;;;;;10.68;6.70;;;768.40;1715.20;;;;;;5036308;28;20037;-78
2021/07/10 08:46:22;;;;;;;8.82;7.25;;;768.40;1664.00;;;;;;5036753;28;20025;-80
2021/07/10 08:48:49;;;;;;;8.95;6.75;;;768.60;1664.00;;;;;;5035095;28;20093;-78
2021/07/10 08:51:15;;;;;;;11.55;6.82;;;768.60;1664.00;;;;;;5034706;28;20075;-78
2021/07/10 08:53:41;;;;;;;8.57;6.82;;;768.60;1638.40;;;;;;5035248;28;20037;-78
2021/07/10 08:56:08;;;;;;;10.13;7.65;;;768.60;1664.00;;;;;;5035846;28;20538;-78
2021/07/10 08:58:37;;;;;;;13.38;7.93;;;768.60;1638.40;;;;;;5036158;28;20041;-78
2021/07/10 09:01:08;;;;;;;13.30;7.53;;;768.60;1638.40;;;;;;5034357;28;20071;-78
2021/07/10 09:03:34;;;;;;;8.63;6.25;;;768.60;1638.40;;;;;;5036535;28;20033;-78
2021/07/10 09:06:00;;;;;;;8.18;6.72;;;768.60;1664.00;;;;;;5034134;28;20029;-78
2021/07/10 09:08:29;;;;;;;12.82;7.10;;;768.40;1664.00;;;;;;5039199;28;20048;-79
2021/07/10 09:10:59;;;;;;;10.27;6.50;;;768.60;1689.60;;;;;;5045407;28;20029;-79
2021/07/10 09:13:35;;;;;;;8.68;5.97;;;768.70;1715.20;;;;;;5042360;28;20033;-79
2021/07/10 09:16:13;;;;;;;9.45;7.22;;;768.80;1664.00;;;;;;5044607;28;20033;-78
2021/07/10 09:18:51;;;;;;;12.02;7.82;;;768.90;1664.00;;;;;;5036960;28;20130;-82
2021/07/10 09:21:42;;;;;;;9.70;6.88;;;768.90;1587.20;;;;;;5037064;28;20022;-80
2021/07/10 09:24:10;;;;;;;10.02;7.25;;;768.60;1612.80;;;;;;5035748;28;20021;-78
2021/07/10 09:26:48;;;;;;;9.45;6.93;;;768.40;1638.40;;;;;;5050361;28;20033;-80
2021/07/10 09:29:23;;;;;;;12.43;7.82;;;768.30;1664.00;;;;;;5033895;28;20037;-82
2021/07/10 09:31:57;;;;;;;9.70;7.88;;;768.30;1638.40;;;;;;5034188;28;20053;-76
2021/07/10 09:34:40;;;;;;;22.38;8.10;;;768.30;1638.40;;;;;;5044297;28;20399;-79
2021/07/10 09:37:08;;;;;;;;;;;768.30;1689.60;;;;;;5054887;28;20029;-80
2021/07/10 09:39:43;;;;;;;14.27;7.90;;;768.60;1689.60;;;;;;5054444;28;20406;-80
2021/07/10 09:42:14;;;;;;;7.93;6.97;;;768.70;1689.60;;;;;;5054673;28;20079;-80
2021/07/10 09:44:44;;;;;;;8.52;7.55;;;768.90;1638.40;;;;;;5054438;28;20033;-82
2021/07/10 09:47:12;;;;;;;9.57;7.03;;;793.60;1638.40;;;;;;5054425;28;20503;-82
2021/07/10 09:49:38;;;;;;;14.48;8.50;;;793.80;1638.40;;;;;;5055453;28;20103;-82
2021/07/10 09:52:09;;;;;;;9.07;6.85;;;794.00;1587.20;;;;;;5053470;28;20045;-81
2021/07/10 09:54:39;;;;;;;9.30;7.57;;;794.10;1587.20;;;;;;5053854;28;20025;-81
2021/07/10 09:57:12;;;;;;;9.80;7.82;;;794.20;1612.80;;;;;;5053896;28;20572;-80
2021/07/10 09:59:44;;;;;;;12.38;7.95;;;794.20;1561.60;;;;;;5054199;28;20151;-81
2021/07/10 10:02:13;;;;;;;13.35;7.07;;;794.50;1561.60;;;;;;5053370;28;20049;-80
2021/07/10 10:04:39;;;;;;;10.50;8.48;;;794.50;1612.80;;;;;;5053531;28;20021;-80
2021/07/10 10:07:10;;;;;;;9.05;7.10;;;819.30;1561.60;;;;;;5054619;28;20055;-80
2021/07/10 10:09:36;;;;;;;13.23;8.27;;;819.30;1536.00;;;;;;5070548;28;20045;-81
2021/07/10 10:12:05;;;;;;;12.60;8.27;;;819.30;1561.60;;;;;;5053802;28;20075;-80
2021/07/10 10:14:35;;;;;;;12.00;9.25;;;819.50;1587.20;;;;;;5052076;28;20021;-79
2021/07/10 10:17:01;;;;;;;11.40;7.20;;;819.60;1561.60;;;;;;5041928;28;20033;-80
2021/07/10 10:19:32;;;;;;;11.02;7.95;;;819.60;1536.00;;;;;;5045201;28;20029;-76
2021/07/10 10:22:01;;;;;;;11.32;8.73;;;819.70;1536.00;;;;;;5069476;28;20052;-77
2021/07/10 10:24:29;;;;;;;10.05;8.43;;;819.70;1510.40;;;;;;5052650;28;20024;-79
2021/07/10 10:26:57;;;;;;;15.70;8.65;;;819.70;1536.00;;;;;;5054399;28;20040;-77
2021/07/10 10:29:25;;;;;;;14.48;11.48;;;819.80;1536.00;;;;;;5054009;28;20469;-77
2021/07/10 10:31:51;;;;;;;14.00;10.90;;;819.70;1561.60;;;;;;5052508;28;20163;-76
2021/07/10 10:34:17;;;;;;;13.60;9.60;;;819.80;1587.20;;;;;;5053259;28;20078;-77
2021/07/10 10:36:46;;;;;;;13.68;9.98;;;819.80;1612.80;;;;;;5053007;28;20437;-77
2021/07/10 10:39:21;;;;;;;12.80;9.73;;;819.80;1536.00;;;;;;5053451;28;20017;-77
2021/07/10 10:41:58;;;;;;;13.32;10.70;;;819.80;1561.60;;;;;;5052419;28;20021;-77
2021/07/10 10:44:32;;;;;;;12.23;10.18;;;819.80;1536.00;;;;;;5052706;28;20468;-77
2021/07/10 10:46:58;;;;;;;14.43;10.15;;;819.90;1561.60;;;;;;5052501;28;20033;-77
2021/07/10 10:49:56;;;;;;;10.95;9.88;;;819.80;1561.60;;;;;;5054556;28;20029;-77
2021/07/10 10:52:43;;;;;;;13.27;10.25;;;819.90;1561.60;;;;;;5053821;28;20041;-77
2021/07/10 10:55:18;;;;;;;12.65;10.25;;;820.10;1536.00;;;;;;5052440;28;20059;-78
2021/07/10 10:57:44;;;;;;;11.80;10.18;;;820.10;1587.20;;;;;;5053613;28;20036;-78
2021/07/10 11:00:12;;;;;;;16.38;10.20;;;844.90;1510.40;;;;;;5052764;28;20029;-78
2021/07/10 11:03:08;;;;;;;13.48;10.13;;;844.90;1536.00;;;;;;5052235;28;20029;-77
2021/07/10 11:05:43;;;;;;;10.68;9.57;;;845.10;1510.40;;;;;;5015004;28;20034;-79
2021/07/10 11:08:18;;;;;;;12.95;8.50;;;845.20;1510.40;;;;;;5031453;28;20064;-78
2021/07/10 11:10:58;;;;;;;12.18;9.57;;;845.20;1510.40;;;;;;5031297;28;20037;-78
2021/07/10 11:13:28;;;;;;;10.00;9.00;;;845.20;1536.00;;;;;;5031205;28;20037;-76
2021/07/10 11:16:17;;;;;;;10.82;9.27;;;845.00;1561.60;;;;;;5014868;28;20041;-79
2021/07/10 11:18:54;;;;;;;15.88;10.18;;;845.20;1510.40;;;;;;5014927;28;20136;-78
2021/07/10 11:21:35;;;;;;;13.52;9.68;;;845.30;1459.20;;;;;;5014727;28;20029;-76
2021/07/10 11:26:56;;;;;;;12.13;8.68;;;845.50;1510.40;;;;;;5031474;28;20030;-78
2021/07/10 11:29:33;;;;;;;12.38;9.32;;;845.60;1459.20;;;;;;5014106;28;20132;-78
2021/07/10 11:32:13;;;;;;;14.60;9.98;;;845.70;1484.80;;;;;;5014167;28;20034;-79
2021/07/10 11:34:59;;;;;;;12.05;10.95;;;870.40;1484.80;;;;;;5031441;28;20067;-78
2021/07/10 11:37:30;;;;;;;15.35;10.90;;;870.50;1459.20;;;;;;5014828;28;20389;-80
2021/07/10 11:39:57;;;;;;;13.07;10.85;;;870.70;1433.60;;;;;;5014711;28;20047;-78
2021/07/10 11:42:25;;;;;;;9.20;8.07;;;870.80;1459.20;;;;;;5030616;28;20091;-79
2021/07/10 11:45:19;;;;;;;11.07;9.98;;;870.80;1408.00;;;;;;5051427;28;20033;-78
2021/07/10 11:47:50;;;;;;;14.38;9.45;;;871.00;1433.60;;;;;;5051556;28;20021;-78
2021/07/10 11:50:23;;;;;;;11.63;9.95;;;871.00;1459.20;;;;;;5051464;28;20033;-77
2021/07/10 11:53:01;;;;;;;12.07;10.23;;;871.10;1433.60;;;;;;5056247;28;20044;-78
2021/07/10 11:55:29;;;;;;;8.82;8.02;;;871.10;1408.00;;;;;;5055457;28;20025;-78
2021/07/10 11:57:57;;;;;;;8.93;8.13;;;871.10;1356.80;;;;;;5055541;28;20044;-76
2021/07/10 12:00:26;;;;;;;10.45;9.43;;;871.10;1382.40;;;;;;5055341;28;20040;-78
2021/07/10 12:02:52;;;;;;;9.60;8.43;;;871.30;1382.40;;;;;;5071921;28;20036;-79
2021/07/10 12:05:23;;;;;;;9.05;8.10;;;896.00;1382.40;;;;;;5055314;28;20072;-80
2021/07/10 12:07:51;;;;;;;9.95;8.10;;;871.30;1382.40;;;;;;5055056;28;20033;-81
2021/07/10 12:10:28;;;;;;;9.43;8.18;;;896.00;1408.00;;;;;;5056536;28;20029;-77
2021/07/10 12:13:10;;;;;;;10.85;8.38;;;896.00;1382.40;;;;;;5055152;28;20037;-78
2021/07/10 12:15:52;;;;;;;8.63;7.32;;;896.00;1331.20;;;;;;5054682;28;20043;-80